»·PEaware :: N171MA KOAK-KSDL

N171MA :: KOAK-KSDL

FLIGHT INFORMATION

Flight Status: Arrived
Operator: Privately registered:
United States
More flights under this callsign
Pilot: Tim M. (868)
Aircraft: SOCATA TBM-900
(TBM9)
More flights by this aircraft type
Origin: KOAK Metro Oakland Intl
United States
Destination: KSDL Scottsdale
United States
More flights between these airports :: More routes between these airports
Route: +CNDEL4 NTELL BIH LIDAT BTY SCHLS KIDDR DSERT2
File this flight plan on PilotEdge
Remarks:
Altitude:
(Current/Filed)
27,000ft
Speed:
(Current/Filed)
315kts
Departed: 19-Sep-20 07:15 PM
Arrived: 19-Sep-20 09:30 PM
Distance/Time
Traveled:
559nm/2:15
Distance/Time
To Go:
Arrived

Flight Plot

Page will automatically refresh every two minutes.

Flight plan parsing failed; only flown route is shown


Map Options




Map Legend


Flown Route
Filed Route
Departure Airport
Arrival Airport
Navaid (VOR, NDB)
Fix

Horizontal Profiles

Position Reports

Time Latitude Longitude Heading Altitude Ground
Speed
19-Sep-20 18:58 37.731354 -122.214270 229 7ft 0kts
19-Sep-20 18:59 37.731354 -122.214270 229 7ft 0kts
19-Sep-20 19:00 37.731354 -122.214270 229 7ft 0kts
19-Sep-20 19:01 37.731354 -122.214270 229 7ft 0kts
19-Sep-20 19:02 37.731354 -122.214270 229 7ft 0kts
19-Sep-20 19:03 37.731354 -122.214270 229 7ft 0kts
19-Sep-20 19:04 37.731354 -122.214270 229 7ft 0kts
19-Sep-20 19:05 37.731354 -122.214270 229 7ft 0kts
19-Sep-20 19:06 37.731354 -122.214270 229 7ft 0kts
19-Sep-20 19:07 37.731354 -122.214270 229 7ft 0kts
19-Sep-20 19:08 37.731354 -122.214270 229 7ft 0kts
19-Sep-20 19:09 37.731354 -122.214270 229 7ft 0kts
19-Sep-20 19:10 37.731271 -122.214391 229 7ft 7kts
19-Sep-20 19:11 37.729710 -122.214288 131 7ft 15kts
19-Sep-20 19:12 37.727522 -122.209824 113 8ft 14kts
19-Sep-20 19:13 37.726065 -122.205318 112 8ft 13kts
19-Sep-20 19:14 37.728546 -122.216184 292 204ft 107kts
19-Sep-20 19:15 37.743846 -122.257956 295 2191ft 143kts
19-Sep-20 19:16 37.761744 -122.304464 303 4281ft 155kts
19-Sep-20 19:17 37.785962 -122.350289 265 6389ft 177kts
19-Sep-20 19:18 37.743748 -122.379311 195 8620ft 187kts
19-Sep-20 19:19 37.693852 -122.398004 197 10813ft 188kts
19-Sep-20 19:20 37.644252 -122.416669 199 12939ft 188kts
19-Sep-20 19:21 37.593772 -122.435624 199 14971ft 192kts
19-Sep-20 19:22 37.541984 -122.455036 200 16904ft 197kts
19-Sep-20 19:23 37.488273 -122.468019 154 18721ft 219kts
19-Sep-20 19:24 37.450655 -122.406597 128 20704ft 226kts
19-Sep-20 19:25 37.413038 -122.341263 125 22404ft 236kts
19-Sep-20 19:26 37.395871 -122.259368 105 24166ft 246kts
19-Sep-20 19:27 37.379077 -122.174702 105 25833ft 254kts
19-Sep-20 19:28 37.361482 -122.086492 106 27001ft 278kts
19-Sep-20 19:29 37.341008 -121.984164 105 26993ft 317kts
19-Sep-20 19:30 37.318963 -121.874535 105 26983ft 326kts
19-Sep-20 19:31 37.296578 -121.763829 105 26983ft 328kts
19-Sep-20 19:32 37.273953 -121.652553 105 26983ft 328kts
19-Sep-20 19:33 37.251241 -121.541422 105 26983ft 329kts
19-Sep-20 19:34 37.228342 -121.429959 105 26985ft 332kts
19-Sep-20 19:35 37.205131 -121.317539 106 26979ft 333kts
19-Sep-20 19:36 37.181808 -121.205198 106 26979ft 332kts
19-Sep-20 19:37 37.158463 -121.093298 106 26976ft 332kts
19-Sep-20 19:38 37.134938 -120.981116 106 26964ft 333kts
19-Sep-20 19:39 37.111308 -120.869004 106 26954ft 333kts
19-Sep-20 19:40 37.087503 -120.756630 106 26955ft 333kts
19-Sep-20 19:41 37.063695 -120.644815 106 26955ft 333kts
19-Sep-20 19:42 37.039697 -120.532698 106 26956ft 333kts
19-Sep-20 19:43 37.015625 -120.420756 106 26956ft 333kts
19-Sep-20 19:44 36.991704 -120.310073 106 26951ft 332kts
19-Sep-20 19:45 36.967441 -120.198392 106 26952ft 332kts
19-Sep-20 19:46 36.943184 -120.087268 106 26958ft 331kts
19-Sep-20 19:47 36.918796 -119.976101 106 26963ft 332kts
19-Sep-20 19:48 36.908109 -119.862674 76 26965ft 333kts
19-Sep-20 19:49 36.942655 -119.755566 66 26964ft 333kts
19-Sep-20 19:50 36.977273 -119.647468 66 26965ft 334kts
19-Sep-20 19:51 37.011585 -119.539732 66 26965ft 334kts
19-Sep-20 19:52 37.045970 -119.431357 66 26966ft 334kts
19-Sep-20 19:53 37.080187 -119.323105 66 26961ft 335kts
19-Sep-20 19:54 37.114352 -119.214599 66 26961ft 334kts
19-Sep-20 19:55 37.148449 -119.105912 66 26982ft 334kts
19-Sep-20 19:56 37.182278 -118.997631 66 27020ft 334kts
19-Sep-20 19:57 37.216143 -118.888873 66 27067ft 334kts
19-Sep-20 19:58 37.249861 -118.780143 66 27093ft 335kts
19-Sep-20 20:00 37.283635 -118.670803 66 27102ft 336kts
19-Sep-20 20:01 37.317492 -118.560801 66 27103ft 337kts
19-Sep-20 20:02 37.351161 -118.450960 66 27104ft 338kts
19-Sep-20 20:03 37.378501 -118.338095 85 27102ft 340kts
19-Sep-20 20:04 37.384730 -118.219520 86 27098ft 340kts
19-Sep-20 20:05 37.390885 -118.100589 86 27100ft 340kts
19-Sep-20 20:06 37.396926 -117.981443 86 27106ft 341kts
19-Sep-20 20:07 37.402858 -117.862342 86 27116ft 341kts
19-Sep-20 20:08 37.408658 -117.743381 86 27120ft 341kts
19-Sep-20 20:09 37.414378 -117.623555 86 27121ft 341kts
19-Sep-20 20:10 37.419962 -117.503894 85 27122ft 342kts
19-Sep-20 20:11 37.425425 -117.384648 86 27123ft 342kts
19-Sep-20 20:12 37.407156 -117.270442 122 27111ft 335kts
19-Sep-20 20:13 37.337690 -117.199016 151 27118ft 324kts
19-Sep-20 20:14 37.262641 -117.135840 150 27113ft 324kts
19-Sep-20 20:15 37.187624 -117.072436 150 27067ft 325kts
19-Sep-20 20:16 37.112447 -117.009018 150 27014ft 325kts
19-Sep-20 20:16 37.050227 -116.956665 150 27003ft 324kts
19-Sep-20 20:18 36.962872 -116.883340 150 26993ft 323kts
19-Sep-20 20:19 36.888113 -116.820729 150 26991ft 323kts
19-Sep-20 20:19 36.826063 -116.768896 149 26992ft 323kts
19-Sep-20 20:20 36.771916 -116.679790 117 26994ft 332kts
19-Sep-20 20:22 36.723602 -116.561447 119 26993ft 331kts
19-Sep-20 20:22 36.688276 -116.476379 119 26994ft 331kts
19-Sep-20 20:23 36.645965 -116.374763 119 26993ft 331kts
19-Sep-20 20:24 36.603488 -116.273080 119 26985ft 329kts
19-Sep-20 20:25 36.561200 -116.172172 119 26981ft 329kts
19-Sep-20 20:26 36.518777 -116.071246 119 26961ft 329kts
19-Sep-20 20:27 36.476296 -115.970507 119 26933ft 328kts
19-Sep-20 20:28 36.433758 -115.869928 119 26918ft 328kts
19-Sep-20 20:29 36.391289 -115.769826 119 26918ft 328kts
19-Sep-20 20:30 36.348651 -115.669644 119 26918ft 328kts
19-Sep-20 20:31 36.305946 -115.569591 119 26919ft 328kts
19-Sep-20 20:32 36.263096 -115.469509 119 26920ft 328kts
19-Sep-20 20:33 36.220232 -115.369707 119 26920ft 329kts
19-Sep-20 20:34 36.177042 -115.269458 119 26916ft 329kts
19-Sep-20 20:35 36.133773 -115.169297 119 26918ft 329kts
19-Sep-20 20:36 36.090441 -115.069326 119 26931ft 330kts
19-Sep-20 20:37 36.047140 -114.969724 119 26942ft 330kts
19-Sep-20 20:38 36.003481 -114.869584 119 26946ft 330kts
19-Sep-20 20:39 35.960047 -114.770260 119 26941ft 328kts
19-Sep-20 20:40 35.916653 -114.671326 119 26937ft 327kts
19-Sep-20 20:41 35.873289 -114.572765 119 26932ft 327kts
19-Sep-20 20:42 35.829845 -114.474298 119 26928ft 327kts
19-Sep-20 20:43 35.786273 -114.375841 119 26928ft 327kts
19-Sep-20 20:44 35.742709 -114.277675 119 26925ft 327kts
19-Sep-20 20:45 35.698902 -114.179266 119 26954ft 326kts
19-Sep-20 20:46 35.655379 -114.081768 119 27014ft 326kts
19-Sep-20 20:47 35.611605 -113.984012 119 27072ft 327kts
19-Sep-20 20:48 35.567390 -113.885539 119 26806ft 334kts
19-Sep-20 20:49 35.521666 -113.783984 119 25331ft 345kts
19-Sep-20 20:50 35.476625 -113.684269 119 25058ft 321kts
19-Sep-20 20:51 35.433439 -113.588953 119 25052ft 322kts
19-Sep-20 20:52 35.389699 -113.492675 119 25039ft 323kts
19-Sep-20 20:53 35.345925 -113.396581 119 25029ft 323kts
19-Sep-20 20:54 35.302042 -113.300528 119 25026ft 322kts
19-Sep-20 20:55 35.258164 -113.204750 119 25027ft 322kts
19-Sep-20 20:56 35.215845 -113.107863 117 25028ft 322kts
19-Sep-20 20:57 35.174968 -113.010505 117 25044ft 321kts
19-Sep-20 20:58 35.134134 -112.913540 117 25162ft 319kts
19-Sep-20 20:59 35.093300 -112.816856 117 25262ft 320kts
19-Sep-20 21:00 35.052437 -112.720384 117 25294ft 321kts
19-Sep-20 21:01 35.011201 -112.623312 116 25294ft 322kts
19-Sep-20 21:02 34.969877 -112.526316 116 25295ft 322kts
19-Sep-20 21:03 34.923489 -112.432957 126 25296ft 322kts
19-Sep-20 21:04 34.869385 -112.345821 127 25291ft 321kts
19-Sep-20 21:05 34.815237 -112.258867 127 25249ft 321kts
19-Sep-20 21:06 34.761228 -112.172292 127 25210ft 321kts
19-Sep-20 21:07 34.707209 -112.085735 127 25173ft 321kts
19-Sep-20 21:08 34.653227 -111.999464 126 24661ft 314kts
19-Sep-20 21:09 34.601653 -111.917190 126 23309ft 301kts
19-Sep-20 21:10 34.551512 -111.837416 126 21996ft 295kts
19-Sep-20 21:11 34.502053 -111.758898 127 20700ft 291kts
19-Sep-20 21:12 34.452571 -111.682028 138 19331ft 290kts
19-Sep-20 21:13 34.376752 -111.686385 194 18058ft 281kts
19-Sep-20 21:14 34.301252 -111.709295 193 16814ft 278kts
19-Sep-20 21:15 34.226668 -111.731924 193 15587ft 276kts
19-Sep-20 21:16 34.152540 -111.754377 192 14367ft 274kts
19-Sep-20 21:17 34.079227 -111.776538 192 13140ft 272kts
19-Sep-20 21:18 34.005799 -111.798675 191 11992ft 258kts
19-Sep-20 21:19 33.940215 -111.818421 191 11349ft 244kts
19-Sep-20 21:20 33.874697 -111.838135 192 9848ft 239kts
19-Sep-20 21:21 33.812760 -111.863213 199 8335ft 232kts
19-Sep-20 21:22 33.753257 -111.894868 209 6680ft 227kts
19-Sep-20 21:23 33.705313 -111.931864 212 6226ft 194kts
19-Sep-20 21:24 33.663402 -111.966869 215 5237ft 162kts
19-Sep-20 21:25 33.626294 -111.977707 160 4029ft 152kts
19-Sep-20 21:26 33.602750 -111.952358 123 2669ft 95kts
19-Sep-20 21:27 33.609670 -111.925838 42 1679ft 90kts
19-Sep-20 21:28 33.623075 -111.910313 43 1469ft 49kts
19-Sep-20 21:29 33.624945 -111.906865 356 1469ft 11kts
19-Sep-20 21:30 33.626024 -111.904513 86 1469ft 0kts
19-Sep-20 21:31 33.626024 -111.904513 86 1469ft 0kts
19-Sep-20 21:32 33.626024 -111.904513 86 1469ft 0kts

Navigation Log

Ident Type
Flight plan parsing failed, navigation log unavailable